Eleva, Wisconsin
Current Conditions -  °F | °C
As of 6:56 PM on Tuesday 21 Oct 2014 (Local Time) from KEAU Reporting Station
Clear Clear  
Wind Chill: 47°   Ceiling: Unl
Heat Index: 49°   Visibility: 10mi
Dew Point: 35°   Wind: 6mph
Humidity: 59%   Direction: 130°SE
Pressure: 30.19"   Gusts: NA
Location:  44.58°N, 91.47°W
Report Text: KEAU 212356Z 13005KT 10SM CLR 09/02 A3019 RMK AO2 SLP231 T00940017 10133 20089 53001
Loading
Personal Weather Stations






























Interactive Weather Map
Tropical Storm Tracking
New forecast layout! Learn more

10-Day Weather Forecast

Advertisements
Track Severe Weather on mobile